Time;durP1;ratioP1;P1;durP2;ratioP2;P2;SDS_P1;SDS_P2;PMS_P1;PMS_P2;Temp;Humidity;BMP_temperature;BMP_pressure;BME280_temperature;BME280_humidity;BME280_pressure;Samples;Min_cycle;Max_cycle;Signal;HPM_P1;HPM_P2
2022/03/21 00:01:36;;;;;;;4.90;1.20;;;24.70;99.90;;;;;;4915130;29;20233;-66
2022/03/21 00:04:04;;;;;;;6.87;1.40;;;25.00;99.90;;;;;;4915591;29;20193;-67
2022/03/21 00:06:32;;;;;;;5.27;1.30;;;25.20;99.90;;;;;;4915456;29;20177;-67
2022/03/21 00:08:59;;;;;;;10.57;1.57;;;24.90;99.90;;;;;;4911808;29;20193;-67
2022/03/21 00:11:27;;;;;;;6.53;1.30;;;25.00;99.90;;;;;;4908498;29;20213;-67
2022/03/21 00:13:55;;;;;;;3.97;1.17;;;24.60;99.90;;;;;;4915750;29;20240;-67
2022/03/21 00:16:23;;;;;;;4.77;1.27;;;25.30;99.90;;;;;;4915503;29;20185;-67
2022/03/21 00:18:52;;;;;;;4.10;1.43;;;26.00;99.90;;;;;;4915494;29;20908;-67
2022/03/21 00:21:20;;;;;;;4.60;1.40;;;26.00;99.90;;;;;;4915647;29;20191;-67
2022/03/21 00:23:48;;;;;;;5.70;1.00;;;25.60;99.90;;;;;;4914308;29;20197;-67
2022/03/21 00:26:16;;;;;;;10.17;1.43;;;25.40;99.90;;;;;;4915763;29;20188;-67
2022/03/21 00:28:44;;;;;;;6.23;1.40;;;25.20;99.90;;;;;;4915847;29;20203;-67
2022/03/21 00:31:11;;;;;;;6.20;1.20;;;25.60;99.90;;;;;;4915511;29;20631;-67
2022/03/21 00:33:39;;;;;;;7.07;1.70;;;25.00;99.90;;;;;;4915517;29;20264;-67
2022/03/21 00:36:08;;;;;;;2.87;0.93;;;25.40;99.90;;;;;;4915694;29;20189;-66
2022/03/21 00:38:41;;;;;;;9.10;1.57;;;25.20;99.90;;;;;;4915648;29;20181;-66
2022/03/21 00:41:09;;;;;;;6.37;1.53;;;24.80;99.90;;;;;;4915048;29;20193;-66
2022/03/21 00:43:37;;;;;;;6.17;1.77;;;25.10;99.90;;;;;;4915619;29;20185;-66
2022/03/21 00:46:05;;;;;;;6.47;1.40;;;25.80;99.90;;;;;;4915373;29;20639;-66
2022/03/21 00:48:33;;;;;;;3.87;1.07;;;25.60;99.90;;;;;;4915465;29;20442;-66
2022/03/21 00:51:00;;;;;;;5.17;1.17;;;24.80;99.90;;;;;;4915173;29;20184;-67
2022/03/21 00:53:28;;;;;;;10.40;1.50;;;24.60;99.90;;;;;;4915026;29;20212;-67
2022/03/21 00:55:56;;;;;;;13.63;2.67;;;24.40;99.90;;;;;;4915591;29;20182;-67
2022/03/21 00:58:24;;;;;;;4.60;1.53;;;25.50;99.90;;;;;;4915495;29;20185;-67
2022/03/21 01:00:51;;;;;;;9.67;1.90;;;25.20;99.90;;;;;;4913928;29;20193;-66
2022/03/21 01:03:19;;;;;;;6.27;1.43;;;25.30;99.90;;;;;;4896555;29;20269;-67
2022/03/21 01:05:47;;;;;;;2.97;1.00;;;25.80;99.90;;;;;;4914509;29;20181;-67
2022/03/21 01:08:14;;;;;;;6.17;1.10;;;25.40;99.90;;;;;;4915487;29;20194;-67
2022/03/21 01:10:42;;;;;;;5.60;1.47;;;25.40;99.90;;;;;;4915215;29;20188;-66
2022/03/21 01:13:10;;;;;;;6.07;1.10;;;25.40;99.90;;;;;;4915146;29;20225;-66
2022/03/21 01:15:38;;;;;;;6.47;1.83;;;25.20;99.90;;;;;;4915434;29;20320;-66
2022/03/21 01:18:06;;;;;;;3.83;1.13;;;25.90;99.90;;;;;;4915254;29;20186;-67
2022/03/21 01:20:34;;;;;;;3.50;1.00;;;26.30;99.90;;;;;;4916138;29;20192;-67
2022/03/21 01:23:02;;;;;;;7.57;1.47;;;27.70;99.90;;;;;;4918732;29;20189;-67
2022/03/21 01:25:30;;;;;;;6.73;1.47;;;28.10;99.90;;;;;;4918891;29;20181;-66
2022/03/21 01:27:57;;;;;;;4.33;1.00;;;27.40;99.90;;;;;;4918692;29;20178;-67
2022/03/21 01:30:25;;;;;;;6.73;1.60;;;27.10;99.90;;;;;;4918620;29;20205;-66
2022/03/21 01:32:53;;;;;;;59.47;7.23;;;26.00;99.90;;;;;;4918363;29;20217;-66
2022/03/21 01:35:21;;;;;;;17.90;3.13;;;25.80;99.90;;;;;;4918639;29;20319;-66
2022/03/21 01:37:49;;;;;;;13.23;1.67;;;25.40;99.90;;;;;;4918545;29;20269;-66
2022/03/21 01:40:17;;;;;;;3.73;1.37;;;25.30;99.90;;;;;;4918538;29;20639;-66
2022/03/21 01:42:47;;;;;;;9.17;1.77;;;25.40;99.90;;;;;;4918289;29;20176;-66
2022/03/21 01:45:15;;;;;;;11.83;2.37;;;25.30;99.90;;;;;;4918433;29;20185;-66
2022/03/21 01:47:43;;;;;;;5.70;1.53;;;25.00;99.90;;;;;;4918252;29;20193;-66
2022/03/21 01:50:12;;;;;;;6.97;1.23;;;25.40;99.90;;;;;;4918137;29;20225;-67
2022/03/21 01:52:42;;;;;;;10.67;1.97;;;25.90;99.90;;;;;;4917812;29;20213;-67
2022/03/21 01:58:02;;;;;;;11.40;1.73;;;26.30;99.90;;;;;;4918249;29;20305;-67
2022/03/21 02:00:30;;;;;;;6.13;1.47;;;26.60;99.90;;;;;;4918066;29;20218;-68
2022/03/21 02:02:57;;;;;;;4.17;1.20;;;26.50;99.90;;;;;;4917727;29;20197;-67
2022/03/21 02:05:25;;;;;;;4.97;1.53;;;25.80;99.90;;;;;;4917861;29;20185;-66
2022/03/21 02:07:53;;;;;;;7.83;1.40;;;25.50;99.90;;;;;;4916673;29;20654;-66
2022/03/21 02:10:21;;;;;;;6.30;1.50;;;25.30;99.90;;;;;;4917743;29;20220;-68
2022/03/21 02:12:49;;;;;;;6.93;1.20;;;25.20;99.90;;;;;;4917302;29;20208;-67
2022/03/21 02:15:17;;;;;;;21.20;2.03;;;25.10;99.90;;;;;;4917885;29;20185;-67
2022/03/21 02:17:47;;;;;;;7.97;1.33;;;25.20;99.90;;;;;;4917789;29;20209;-66
2022/03/21 02:20:19;;;;;;;5.63;1.30;;;24.90;99.90;;;;;;4917788;29;20178;-67
2022/03/21 02:23:41;;;;;;;6.83;1.63;;;25.10;99.90;;;;;;4917273;29;20177;-67
2022/03/21 02:26:10;;;;;;;93.20;15.00;;;25.20;99.90;;;;;;4890309;29;20201;-67
2022/03/21 02:28:39;;;;;;;5.27;1.10;;;25.60;99.90;;;;;;4915660;29;20185;-66
2022/03/21 02:31:08;;;;;;;4.87;1.73;;;25.70;99.90;;;;;;4916923;29;20181;-66
2022/03/21 02:33:36;;;;;;;3.23;1.37;;;25.60;99.90;;;;;;4917140;29;20289;-66
2022/03/21 02:36:04;;;;;;;2.77;1.23;;;26.10;99.90;;;;;;4917534;29;20559;-66
2022/03/21 02:38:34;;;;;;;9.80;1.40;;;27.10;99.90;;;;;;4917045;29;20549;-66
2022/03/21 02:41:02;;;;;;;7.73;1.30;;;27.60;99.90;;;;;;4916371;29;20229;-65
2022/03/21 02:43:30;;;;;;;6.83;1.30;;;26.70;99.90;;;;;;4917244;29;20635;-66
2022/03/21 02:46:08;;;;;;;8.80;1.47;;;26.10;99.90;;;;;;4917390;29;20263;-66
2022/03/21 02:48:35;;;;;;;4.57;1.00;;;26.30;99.90;;;;;;4917059;29;20683;-65
2022/03/21 02:51:04;;;;;;;8.93;2.20;;;27.30;99.90;;;;;;4916585;29;20766;-65
2022/03/21 02:53:35;;;;;;;3.13;1.03;;;27.10;99.90;;;;;;4916459;29;20217;-65
2022/03/21 02:56:03;;;;;;;5.90;1.80;;;26.40;99.90;;;;;;4914387;29;20188;-66
2022/03/21 02:58:30;;;;;;;6.77;2.03;;;25.90;99.90;;;;;;4916765;29;20181;-67
2022/03/21 03:01:12;;;;;;;4.60;1.23;;;26.40;99.90;;;;;;4916397;29;20308;-65
2022/03/21 03:03:41;;;;;;;6.33;1.20;;;26.30;99.90;;;;;;4916934;29;20193;-66
2022/03/21 03:06:09;;;;;;;4.83;1.50;;;26.30;99.90;;;;;;4916568;29;20637;-64
2022/03/21 03:08:38;;;;;;;5.20;1.40;;;27.30;99.90;;;;;;4916430;29;20227;-66
2022/03/21 03:11:06;;;;;;;4.70;1.10;;;28.30;99.90;;;;;;4914898;29;20188;-65
2022/03/21 03:13:34;;;;;;;5.60;1.40;;;29.20;99.90;;;;;;4916239;29;20216;-66
2022/03/21 03:16:02;;;;;;;8.03;1.10;;;30.00;99.90;;;;;;4914084;29;20617;-66
2022/03/21 03:18:30;;;;;;;4.03;1.23;;;29.20;99.90;;;;;;4916295;29;20647;-65
2022/03/21 03:20:59;;;;;;;5.30;0.90;;;27.90;99.90;;;;;;4915673;29;20173;-66
2022/03/21 03:23:29;;;;;;;4.30;1.03;;;27.70;99.90;;;;;;4916216;29;20196;-66
2022/03/21 03:26:02;;;;;;;5.27;1.07;;;27.30;99.90;;;;;;4916035;29;20184;-65
2022/03/21 03:28:31;;;;;;;3.57;1.00;;;27.50;99.90;;;;;;4914947;29;20699;-66
2022/03/21 03:31:02;;;;;;;5.30;1.20;;;27.30;99.90;;;;;;4916069;29;20205;-66
2022/03/21 03:33:30;;;;;;;3.17;0.90;;;27.40;99.90;;;;;;4916242;29;20256;-66
2022/03/21 03:35:58;;;;;;;6.30;1.20;;;26.40;99.90;;;;;;4916301;29;20189;-66
2022/03/21 03:38:26;;;;;;;2.67;1.00;;;26.10;99.90;;;;;;4915830;29;20200;-66
2022/03/21 03:40:54;;;;;;;9.13;1.30;;;26.20;99.90;;;;;;4916298;29;20213;-66
2022/03/21 03:43:23;;;;;;;6.63;1.83;;;26.00;99.90;;;;;;4915734;29;20182;-66
2022/03/21 03:45:52;;;;;;;3.07;1.20;;;26.30;99.90;;;;;;4916110;29;20181;-66
2022/03/21 03:48:21;;;;;;;6.50;1.47;;;26.40;99.90;;;;;;4916101;29;20185;-66
2022/03/21 03:50:49;;;;;;;5.30;1.07;;;26.40;99.90;;;;;;4916230;29;20185;-66
2022/03/21 03:53:19;;;;;;;3.60;1.10;;;26.30;99.90;;;;;;4915752;29;20327;-66
2022/03/21 03:55:47;;;;;;;7.13;1.40;;;26.00;99.90;;;;;;4916176;29;20173;-67
2022/03/21 03:58:15;;;;;;;5.27;1.10;;;25.80;99.90;;;;;;4915911;29;20284;-66
2022/03/21 04:00:44;;;;;;;4.00;0.97;;;26.00;99.90;;;;;;4915871;29;20181;-67
2022/03/21 04:05:58;;;;;;;4.73;1.00;;;27.70;99.90;;;;;;4916108;29;20192;-67
2022/03/21 04:08:26;;;;;;;6.27;1.53;;;28.30;99.90;;;;;;4915806;29;20201;-67
2022/03/21 04:10:54;;;;;;;5.03;1.23;;;28.00;99.90;;;;;;4915819;29;20215;-66
2022/03/21 04:13:21;;;;;;;4.53;1.10;;;27.70;99.90;;;;;;4915558;29;20307;-66
2022/03/21 04:15:49;;;;;;;4.60;1.07;;;27.50;99.90;;;;;;4915951;29;20229;-67
2022/03/21 04:18:17;;;;;;;5.70;1.73;;;27.40;99.90;;;;;;4915595;29;20616;-67
2022/03/21 04:20:45;;;;;;;4.53;1.10;;;27.90;99.90;;;;;;4915603;29;20205;-66
2022/03/21 04:23:12;;;;;;;10.83;1.60;;;28.30;99.90;;;;;;4914491;29;20227;-67
2022/03/21 04:25:40;;;;;;;2.90;1.17;;;28.50;99.90;;;;;;4915852;29;20193;-66
2022/03/21 04:28:17;;;;;;;5.60;1.20;;;28.30;99.90;;;;;;4915614;29;20666;-66
2022/03/21 04:30:45;;;;;;;5.40;1.23;;;28.30;99.90;;;;;;4915759;29;20635;-66
2022/03/21 04:33:13;;;;;;;3.40;1.20;;;28.10;99.90;;;;;;4915430;29;20444;-67
2022/03/21 04:35:42;;;;;;;5.90;1.37;;;28.50;99.90;;;;;;4915784;29;20184;-66
2022/03/21 04:38:14;;;;;;;6.40;1.20;;;28.40;99.90;;;;;;4915500;29;20251;-67
2022/03/21 04:40:47;;;;;;;3.50;1.00;;;28.20;99.90;;;;;;4915809;29;20570;-66
2022/03/21 04:43:17;;;;;;;4.60;1.07;;;27.90;99.90;;;;;;4915612;29;20241;-67
2022/03/21 04:45:49;;;;;;;3.97;1.10;;;27.70;99.90;;;;;;4915407;29;20193;-67
2022/03/21 04:48:17;;;;;;;3.17;1.00;;;27.60;99.90;;;;;;4914752;29;20193;-67
2022/03/21 04:50:44;;;;;;;4.00;1.10;;;27.60;99.90;;;;;;4915483;29;20181;-67
2022/03/21 04:53:12;;;;;;;5.27;1.37;;;27.80;99.90;;;;;;4915433;29;20236;-67
2022/03/21 04:55:41;;;;;;;3.13;0.97;;;27.90;99.90;;;;;;4917417;29;20190;-67
2022/03/21 04:58:10;;;;;;;3.70;1.20;;;27.90;99.90;;;;;;4918893;29;20197;-67
2022/03/21 05:00:39;;;;;;;3.37;0.90;;;27.20;99.90;;;;;;4919006;29;20189;-67
2022/03/21 05:03:07;;;;;;;4.23;1.20;;;27.00;99.90;;;;;;4919084;29;20232;-67
2022/03/21 05:05:36;;;;;;;4.97;1.17;;;27.10;99.90;;;;;;4919016;29;20662;-67
2022/03/21 05:08:05;;;;;;;4.90;1.17;;;27.00;99.90;;;;;;4918734;29;20194;-67
2022/03/21 05:10:34;;;;;;;4.80;1.10;;;27.00;99.90;;;;;;4919017;29;20188;-65
2022/03/21 05:13:02;;;;;;;2.33;0.87;;;26.70;99.90;;;;;;4918483;29;20715;-66
2022/03/21 05:15:30;;;;;;;5.07;1.10;;;26.70;99.90;;;;;;4918979;29;20205;-65
2022/03/21 05:17:57;;;;;;;4.10;1.47;;;26.40;99.90;;;;;;4918659;29;20227;-66
2022/03/21 05:20:25;;;;;;;10.60;1.20;;;27.10;99.90;;;;;;4918778;29;20664;-66
2022/03/21 05:31:11;;;;;;;7.80;1.73;;;27.50;99.90;;;;;;4918994;29;20200;-66
2022/03/21 05:36:28;;;;;;;4.23;1.03;;;27.60;99.90;;;;;;4918168;29;20292;-67
2022/03/21 05:38:57;;;;;;;4.37;1.40;;;27.20;99.90;;;;;;4917144;29;20228;-67
2022/03/21 05:41:25;;;;;;;2.37;1.00;;;27.30;99.90;;;;;;4917625;29;20265;-67
2022/03/21 05:43:53;;;;;;;5.23;1.30;;;27.30;99.90;;;;;;4918442;29;20188;-67
2022/03/21 05:46:22;;;;;;;4.50;1.23;;;27.20;99.90;;;;;;4918035;29;20191;-66
2022/03/21 05:48:58;;;;;;;6.43;1.10;;;27.20;99.90;;;;;;4918350;29;20264;-66
2022/03/21 05:51:29;;;;;;;8.53;1.80;;;27.00;99.90;;;;;;4917986;29;20224;-66
2022/03/21 05:53:58;;;;;;;8.00;1.20;;;26.90;99.90;;;;;;4918116;29;20224;-67
2022/03/21 05:56:27;;;;;;;6.27;1.57;;;26.60;99.90;;;;;;4918084;29;20201;-67
2022/03/21 05:58:56;;;;;;;5.70;1.40;;;26.50;99.90;;;;;;4918032;29;20540;-66
2022/03/21 06:01:24;;;;;;;5.67;1.30;;;26.60;99.90;;;;;;4917849;29;20233;-67
2022/03/21 06:03:54;;;;;;;5.83;1.63;;;26.50;99.90;;;;;;4916836;29;20273;-66
2022/03/21 06:06:23;;;;;;;3.93;1.27;;;26.60;99.90;;;;;;4917139;29;20611;-66
2022/03/21 06:08:51;;;;;;;11.87;2.83;;;26.50;99.90;;;;;;4917008;29;20196;-67
2022/03/21 06:11:19;;;;;;;7.60;1.47;;;26.70;99.90;;;;;;4916776;29;20192;-66
2022/03/21 06:13:47;;;;;;;4.90;1.70;;;26.80;99.90;;;;;;4917689;29;20285;-66
2022/03/21 06:16:15;;;;;;;8.47;2.07;;;26.80;99.90;;;;;;4917567;29;20177;-66
2022/03/21 06:18:42;;;;;;;12.80;2.80;;;26.90;99.90;;;;;;4917840;29;20253;-66
2022/03/21 06:21:12;;;;;;;9.23;1.37;;;26.70;99.90;;;;;;4917734;29;20195;-66
2022/03/21 06:23:40;;;;;;;6.10;1.53;;;26.70;99.90;;;;;;4917767;29;20185;-66
2022/03/21 06:26:08;;;;;;;6.83;1.57;;;26.70;99.90;;;;;;4917334;29;20711;-66
2022/03/21 06:28:37;;;;;;;10.13;1.97;;;27.50;99.90;;;;;;4917599;29;20193;-66
2022/03/21 06:31:05;;;;;;;4.40;1.30;;;27.60;99.90;;;;;;4917426;29;20180;-67
2022/03/21 06:33:33;;;;;;;4.33;1.27;;;27.40;99.90;;;;;;4917342;29;20300;-67
2022/03/21 06:36:02;;;;;;;4.10;1.20;;;27.80;99.90;;;;;;4917299;29;20603;-66
2022/03/21 06:38:30;;;;;;;8.43;1.30;;;27.70;99.90;;;;;;4917489;29;20174;-67
2022/03/21 06:40:59;;;;;;;3.13;1.17;;;27.90;99.90;;;;;;4917404;29;20185;-67
2022/03/21 06:43:27;;;;;;;5.00;1.07;;;27.60;99.90;;;;;;4917505;29;20191;-67
2022/03/21 06:45:56;;;;;;;11.57;1.47;;;27.50;99.90;;;;;;4916922;29;20245;-66
2022/03/21 06:48:27;;;;;;;6.70;1.37;;;27.00;99.90;;;;;;4916550;29;20186;-67
2022/03/21 06:50:56;;;;;;;5.07;1.57;;;26.20;99.90;;;;;;4917139;29;20256;-68
2022/03/21 06:53:24;;;;;;;5.90;1.37;;;25.70;99.90;;;;;;4916887;29;20277;-66
2022/03/21 06:55:52;;;;;;;4.20;1.10;;;25.30;99.90;;;;;;4898257;29;20189;-67
2022/03/21 06:58:19;;;;;;;4.70;1.33;;;25.20;99.90;;;;;;4898224;29;20182;-67
2022/03/21 07:00:48;;;;;;;12.63;2.43;;;25.20;99.90;;;;;;4897920;29;20186;-67
2022/03/21 07:03:19;;;;;;;7.73;1.77;;;25.40;99.90;;;;;;4898189;29;20186;-67
2022/03/21 07:05:47;;;;;;;20.10;2.57;;;25.60;99.90;;;;;;4915059;29;20650;-67
2022/03/21 07:08:14;;;;;;;79.30;7.80;;;26.30;99.90;;;;;;4916975;29;20174;-67
2022/03/21 07:10:44;;;;;;;6.60;1.87;;;26.50;99.90;;;;;;4916814;29;20268;-67
2022/03/21 07:13:12;;;;;;;10.70;1.73;;;26.10;99.90;;;;;;4916599;29;20225;-67
2022/03/21 07:15:43;;;;;;;6.97;1.37;;;26.20;99.90;;;;;;4916283;29;20189;-67
2022/03/21 07:18:10;;;;;;;6.27;1.33;;;26.10;99.90;;;;;;4915794;29;20197;-68
2022/03/21 07:20:42;;;;;;;6.50;1.27;;;25.60;99.90;;;;;;4916290;29;20368;-67
2022/03/21 07:23:10;;;;;;;9.27;1.30;;;25.30;99.90;;;;;;4916583;29;20654;-67
2022/03/21 07:25:38;;;;;;;5.47;1.60;;;24.90;99.90;;;;;;4916356;29;20185;-68
2022/03/21 07:28:06;;;;;;;8.47;1.93;;;24.50;99.90;;;;;;4916488;29;20545;-67
2022/03/21 07:30:33;;;;;;;4.07;1.03;;;24.50;99.90;;;;;;4916344;29;20196;-67
2022/03/21 07:33:01;;;;;;;3.40;1.33;;;24.60;99.90;;;;;;4916102;29;20219;-67
2022/03/21 07:35:29;;;;;;;4.00;1.30;;;24.40;99.90;;;;;;4916246;29;20223;-67
2022/03/21 07:37:57;;;;;;;7.60;2.00;;;24.10;99.90;;;;;;4916271;29;20193;-67
2022/03/21 07:40:26;;;;;;;6.00;1.23;;;23.90;99.90;;;;;;4916403;29;20178;-67
2022/03/21 07:42:54;;;;;;;5.00;1.30;;;23.70;99.90;;;;;;4915898;29;20283;-66
2022/03/21 07:48:08;;;;;;;4.70;1.37;;;23.50;99.90;;;;;;4916250;29;20195;-67
2022/03/21 07:50:36;;;;;;;4.43;1.40;;;23.30;99.90;;;;;;4916217;29;20212;-67
2022/03/21 07:53:04;;;;;;;9.20;1.40;;;23.10;99.90;;;;;;4915896;29;20216;-66
2022/03/21 07:55:32;;;;;;;4.60;1.47;;;23.10;99.90;;;;;;4916003;29;20232;-67
2022/03/21 07:58:00;;;;;;;5.20;1.33;;;23.00;99.90;;;;;;4915562;29;20189;-67
2022/03/21 08:00:30;;;;;;;4.63;1.23;;;22.90;99.90;;;;;;4915911;29;20203;-67
2022/03/21 08:02:58;;;;;;;5.20;1.73;;;22.70;99.90;;;;;;4915706;29;20247;-66
2022/03/21 08:05:30;;;;;;;6.80;1.60;;;22.60;99.90;;;;;;4915296;29;20198;-67
2022/03/21 08:07:57;;;;;;;6.90;1.10;;;22.60;99.90;;;;;;4915954;29;20644;-67
2022/03/21 08:10:25;;;;;;;7.03;1.50;;;22.40;99.90;;;;;;4915915;29;20180;-68
2022/03/21 08:12:55;;;;;;;4.60;1.00;;;22.40;99.90;;;;;;4915039;29;20216;-67
2022/03/21 08:15:23;;;;;;;5.33;1.37;;;22.30;99.90;;;;;;4915607;29;20193;-67
2022/03/21 08:17:59;;;;;;;7.77;1.40;;;22.20;99.90;;;;;;4915792;29;20176;-67
2022/03/21 08:20:34;;;;;;;5.13;1.53;;;22.20;99.90;;;;;;4915901;29;20651;-68
2022/03/21 08:23:08;;;;;;;6.57;1.50;;;22.20;99.90;;;;;;4915701;29;20186;-67
2022/03/21 08:25:36;;;;;;;4.83;1.40;;;22.20;99.90;;;;;;4915685;29;20189;-67
2022/03/21 08:28:05;;;;;;;7.57;1.73;;;22.10;99.90;;;;;;4915641;29;20195;-67
2022/03/21 08:30:35;;;;;;;5.07;1.40;;;22.00;99.90;;;;;;4918079;29;20537;-67
2022/03/21 08:33:06;;;;;;;6.97;1.30;;;21.80;99.90;;;;;;4919259;29;20212;-66
2022/03/21 08:35:37;;;;;;;7.27;1.57;;;21.80;99.90;;;;;;4919037;29;20279;-67
2022/03/21 08:38:07;;;;;;;10.23;1.83;;;21.80;99.90;;;;;;4919629;29;20263;-67
2022/03/21 08:40:36;;;;;;;6.90;1.30;;;21.70;99.90;;;;;;4919480;29;20180;-67
2022/03/21 08:43:04;;;;;;;7.20;1.90;;;21.80;99.90;;;;;;4919390;29;20553;-67
2022/03/21 08:45:32;;;;;;;8.17;1.67;;;21.70;99.90;;;;;;4917890;29;20189;-66
2022/03/21 08:47:59;;;;;;;7.50;1.43;;;21.60;99.90;;;;;;4918559;29;20213;-67
2022/03/21 08:50:27;;;;;;;5.37;1.70;;;21.50;99.90;;;;;;4920454;29;20192;-67
2022/03/21 08:52:58;;;;;;;9.40;1.57;;;21.50;99.90;;;;;;4920072;29;20211;-67
2022/03/21 08:55:26;;;;;;;7.10;1.50;;;21.40;99.90;;;;;;4920577;29;20189;-67
2022/03/21 08:57:54;;;;;;;3.43;1.23;;;21.40;99.90;;;;;;4918771;29;20211;-67
2022/03/21 09:00:21;;;;;;;7.40;1.77;;;21.40;99.90;;;;;;4920352;29;20272;-67
2022/03/21 09:02:54;;;;;;;4.83;1.60;;;21.30;99.90;;;;;;4920281;29;20316;-67
2022/03/21 09:05:22;;;;;;;6.97;2.00;;;21.20;99.90;;;;;;4919433;29;20199;-67
2022/03/21 09:07:53;;;;;;;8.27;1.37;;;21.20;99.90;;;;;;4920439;29;20188;-67
2022/03/21 09:10:20;;;;;;;5.27;1.80;;;21.00;99.90;;;;;;4920478;29;20253;-67
2022/03/21 09:12:48;;;;;;;6.80;1.60;;;20.90;99.90;;;;;;4920129;29;20184;-67
2022/03/21 09:15:16;;;;;;;8.97;1.50;;;20.90;99.90;;;;;;4918637;29;20189;-67
2022/03/21 09:17:44;;;;;;;5.37;1.63;;;20.80;99.90;;;;;;4919832;29;20217;-67
2022/03/21 09:20:14;;;;;;;4.83;1.40;;;20.80;99.90;;;;;;4920326;29;20205;-66
2022/03/21 09:22:41;;;;;;;5.83;1.73;;;20.80;99.90;;;;;;4921034;29;20191;-67
2022/03/21 09:25:09;;;;;;;10.77;2.17;;;20.80;99.90;;;;;;4920237;29;20244;-67
2022/03/21 09:27:40;;;;;;;5.57;1.40;;;20.80;99.90;;;;;;4923609;29;20189;-67
2022/03/21 09:30:08;;;;;;;6.47;1.47;;;20.70;99.90;;;;;;4926355;29;20532;-68
2022/03/21 09:32:36;;;;;;;5.77;1.57;;;20.60;99.90;;;;;;4925093;29;20192;-67
2022/03/21 09:35:05;;;;;;;6.07;1.63;;;20.50;99.90;;;;;;4926466;29;20185;-67
2022/03/21 09:37:33;;;;;;;2.87;1.30;;;20.40;99.90;;;;;;4925751;29;20184;-67
2022/03/21 09:40:04;;;;;;;8.37;1.83;;;20.30;99.90;;;;;;4925053;29;20331;-68
2022/03/21 09:42:31;;;;;;;6.33;1.70;;;20.20;99.90;;;;;;4919311;29;20176;-68
2022/03/21 09:45:02;;;;;;;3.23;1.30;;;20.20;99.90;;;;;;4920059;29;20179;-68
2022/03/21 09:50:17;;;;;;;6.17;1.30;;;20.10;99.90;;;;;;4919151;29;20197;-68
2022/03/21 09:52:49;;;;;;;7.47;1.80;;;20.00;99.90;;;;;;4919492;29;20275;-68
2022/03/21 09:55:16;;;;;;;5.53;1.57;;;20.00;99.90;;;;;;4902772;29;20549;-68
2022/03/21 09:57:44;;;;;;;6.20;1.73;;;19.90;99.90;;;;;;4919594;29;20224;-68
2022/03/21 10:00:12;;;;;;;6.67;1.57;;;19.80;99.90;;;;;;4919745;29;20196;-68
2022/03/21 10:02:39;;;;;;;6.73;1.60;;;19.70;99.90;;;;;;4919123;29;20236;-67
2022/03/21 10:05:07;;;;;;;5.67;1.73;;;19.70;99.90;;;;;;4919706;29;20192;-67
2022/03/21 10:07:34;;;;;;;7.70;1.93;;;19.60;99.90;;;;;;4919108;29;20189;-67
2022/03/21 10:10:08;;;;;;;7.40;1.57;;;19.60;99.90;;;;;;4918221;29;20292;-66
2022/03/21 10:12:36;;;;;;;6.07;1.67;;;19.60;99.90;;;;;;4919120;29;20551;-67
2022/03/21 10:15:10;;;;;;;6.17;1.77;;;19.50;99.90;;;;;;4918021;29;20199;-67
2022/03/21 10:17:38;;;;;;;8.17;2.37;;;19.40;99.90;;;;;;4918692;29;20191;-67
2022/03/21 10:20:14;;;;;;;7.43;2.20;;;19.40;99.90;;;;;;4919046;29;20242;-68
2022/03/21 10:22:44;;;;;;;8.23;1.80;;;19.30;99.90;;;;;;4918811;29;20193;-68
2022/03/21 10:25:19;;;;;;;2.63;1.50;;;19.20;99.90;;;;;;4919074;29;20180;-67
2022/03/21 10:27:49;;;;;;;4.60;1.40;;;19.20;99.90;;;;;;4918164;29;20189;-66
2022/03/21 10:30:23;;;;;;;6.93;1.80;;;19.10;99.90;;;;;;4918209;29;20267;-67
2022/03/21 10:32:59;;;;;;;6.97;1.67;;;19.10;99.90;;;;;;4918113;29;20193;-67
2022/03/21 10:35:32;;;;;;;9.57;2.13;;;19.10;99.90;;;;;;4918937;29;20185;-68
2022/03/21 10:38:01;;;;;;;7.93;2.03;;;19.10;99.90;;;;;;4917124;29;20246;-69
2022/03/21 10:40:42;;;;;;;9.33;2.50;;;19.00;99.90;;;;;;4918350;29;20303;-68
2022/03/21 10:43:19;;;;;;;4.93;1.50;;;19.00;99.90;;;;;;4918548;29;20193;-67
2022/03/21 10:45:49;;;;;;;6.73;1.43;;;19.00;99.90;;;;;;4915976;29;20192;-68
2022/03/21 10:48:24;;;;;;;4.90;1.80;;;18.90;99.90;;;;;;4918061;29;20324;-67
2022/03/21 10:50:54;;;;;;;8.33;1.50;;;18.90;99.90;;;;;;4917599;29;20673;-68
2022/03/21 10:53:24;;;;;;;4.87;1.90;;;18.90;99.90;;;;;;4917790;29;20756;-67
2022/03/21 10:56:01;;;;;;;4.03;1.70;;;18.80;99.90;;;;;;4917741;29;20364;-68
2022/03/21 10:58:38;;;;;;;8.67;1.83;;;18.80;99.90;;;;;;4917958;29;20201;-67
2022/03/21 11:01:17;;;;;;;3.27;1.50;;;18.80;99.90;;;;;;4916864;29;20768;-67
2022/03/21 11:03:50;;;;;;;6.20;1.70;;;18.70;99.90;;;;;;4899501;29;20232;-67
2022/03/21 11:06:18;;;;;;;8.00;2.03;;;18.70;99.90;;;;;;4905468;29;20185;-67
2022/03/21 11:08:51;;;;;;;9.30;2.03;;;18.70;99.90;;;;;;4918244;29;20174;-68
2022/03/21 11:11:19;;;;;;;7.97;2.00;;;18.60;99.90;;;;;;4918130;29;20188;-67
2022/03/21 11:13:47;;;;;;;9.17;2.23;;;18.60;99.90;;;;;;4917378;29;20232;-67
2022/03/21 11:16:21;;;;;;;5.20;1.60;;;18.60;99.90;;;;;;4917566;29;20656;-67
2022/03/21 11:18:54;;;;;;;8.87;2.20;;;18.60;99.90;;;;;;4917963;29;20188;-67
2022/03/21 11:21:22;;;;;;;6.73;1.70;;;18.60;99.90;;;;;;4915702;29;20204;-67
2022/03/21 11:23:50;;;;;;;6.70;1.97;;;18.60;99.90;;;;;;4917014;29;20181;-67
2022/03/21 11:26:49;;;;;;;4.60;2.03;;;18.60;99.90;;;;;;4914857;29;20270;-67
2022/03/21 11:29:33;;;;;;;3.57;1.53;;;18.60;99.90;;;;;;4914534;29;20193;-67
2022/03/21 11:32:26;;;;;;;9.90;1.93;;;18.50;99.90;;;;;;4917594;29;20185;-68
2022/03/21 11:35:14;;;;;;;5.40;1.90;;;18.50;99.90;;;;;;4915191;29;20275;-67
2022/03/21 11:37:42;;;;;;;8.03;1.77;;;18.50;99.90;;;;;;4917290;29;20211;-67
2022/03/21 11:40:26;;;;;;;7.60;2.10;;;18.40;99.90;;;;;;4917523;29;20192;-67
2022/03/21 11:43:14;;;;;;;4.83;1.57;;;18.40;99.90;;;;;;4917478;29;20649;-67
2022/03/21 11:45:41;;;;;;;3.63;1.93;;;18.40;99.90;;;;;;4904256;29;20199;-66
2022/03/21 11:48:23;;;;;;;2.83;1.60;;;18.40;99.90;;;;;;4916589;29;20284;-67
2022/03/21 11:51:13;;;;;;;9.67;2.60;;;18.40;99.90;;;;;;4917441;29;20185;-67
2022/03/21 11:53:51;;;;;;;12.73;2.37;;;18.30;99.90;;;;;;4913329;29;20216;-67
2022/03/21 11:56:43;;;;;;;5.57;1.73;;;18.30;99.90;;;;;;4915796;29;20194;-66
2022/03/21 11:59:33;;;;;;;5.57;1.90;;;18.20;99.90;;;;;;4917309;29;20183;-66
2022/03/21 12:02:01;;;;;;;5.57;1.90;;;18.20;99.90;;;;;;4917583;29;20233;-67
2022/03/21 12:04:29;;;;;;;6.13;2.03;;;18.10;99.90;;;;;;4916946;29;20183;-67
2022/03/21 12:07:01;;;;;;;5.13;2.10;;;18.10;99.90;;;;;;4917057;29;20186;-67
2022/03/21 12:09:41;;;;;;;7.40;2.20;;;18.10;99.90;;;;;;4917290;29;20695;-67
2022/03/21 12:12:10;;;;;;;5.33;2.10;;;18.10;99.90;;;;;;4916387;29;20189;-67
2022/03/21 12:14:41;;;;;;;9.30;2.03;;;18.00;99.90;;;;;;4917081;29;20702;-67
2022/03/21 12:17:16;;;;;;;7.33;2.33;;;18.00;99.90;;;;;;4916789;29;20216;-68
2022/03/21 12:19:58;;;;;;;9.17;1.97;;;18.00;99.90;;;;;;4916940;29;20197;-68
2022/03/21 12:25:13;;;;;;;5.50;1.83;;;17.90;99.90;;;;;;4917120;29;20189;-68
2022/03/21 12:27:42;;;;;;;7.67;1.80;;;17.90;99.90;;;;;;4916474;29;20635;-68
2022/03/21 12:30:26;;;;;;;6.90;2.00;;;17.90;99.90;;;;;;4916784;29;20196;-68
2022/03/21 12:32:57;;;;;;;10.27;2.10;;;17.90;99.90;;;;;;4916597;29;20199;-68
2022/03/21 12:35:46;;;;;;;8.30;2.47;;;17.90;99.90;;;;;;4917006;29;20193;-68
2022/03/21 12:38:20;;;;;;;4.27;2.10;;;17.80;99.90;;;;;;4916573;29;20204;-65
2022/03/21 12:40:50;;;;;;;7.10;2.20;;;17.80;99.90;;;;;;4916976;29;20185;-67
2022/03/21 12:43:22;;;;;;;4.37;2.10;;;17.80;99.90;;;;;;4916354;29;20208;-67
2022/03/21 12:45:58;;;;;;;5.60;1.90;;;17.80;99.90;;;;;;4916780;29;20658;-67
2022/03/21 12:48:30;;;;;;;5.20;1.80;;;17.80;99.90;;;;;;4902976;29;20564;-67
2022/03/21 12:50:58;;;;;;;7.37;2.20;;;17.80;99.90;;;;;;4916906;29;20545;-67
2022/03/21 12:53:42;;;;;;;4.63;2.40;;;17.80;99.90;;;;;;4915862;29;20213;-68
2022/03/21 12:56:12;;;;;;;6.67;2.43;;;17.80;99.90;;;;;;4916443;29;20184;-68
2022/03/21 12:58:45;;;;;;;10.53;2.40;;;17.80;99.90;;;;;;4916838;29;20268;-67
2022/03/21 13:01:20;;;;;;;5.67;1.90;;;17.80;99.90;;;;;;4915824;29;20244;-67
2022/03/21 13:10:32;;;;;;;6.13;1.80;;;17.90;99.90;;;;;;4916781;29;20223;-67
2022/03/21 13:12:31;;;;;;;4.60;1.73;;;17.80;99.90;;;;;;4916523;29;20250;-67
2022/03/21 13:15:04;;;;;;;11.53;2.53;;;17.70;99.90;;;;;;4916356;29;20225;-67
2022/03/21 13:17:51;;;;;;;6.10;2.20;;;17.70;99.90;;;;;;4919819;29;20526;-67
2022/03/21 13:20:25;;;;;;;4.63;1.90;;;17.70;99.90;;;;;;4920459;29;20179;-67
2022/03/21 13:22:53;;;;;;;7.77;2.50;;;17.60;99.90;;;;;;4919617;29;20182;-67
2022/03/21 13:25:25;;;;;;;8.80;2.70;;;17.60;99.90;;;;;;4920126;29;20180;-67
2022/03/21 13:28:06;;;;;;;4.53;2.00;;;17.60;99.90;;;;;;4919847;29;20196;-67
2022/03/21 13:30:34;;;;;;;9.67;2.37;;;17.60;99.90;;;;;;4920156;29;20232;-67
2022/03/21 13:33:01;;;;;;;4.83;2.10;;;17.60;99.90;;;;;;4919524;29;20307;-67